TimeMST,TemperatureF,Dew PointF,Humidity,Sea Level PressureIn,VisibilityMPH,Wind Direction,Wind SpeedMPH,Gust SpeedMPH,PrecipitationIn,Events,Conditions,WindDirDegrees,DateUTC
12:15 AM,15.8,10.4,79,29.85,10.0,NNW,6.9,-,N/A,,Mostly Cloudy,330,2013-02-24 07:15:00
12:36 AM,12.2,8.6,85,29.86,10.0,North,8.1,-,N/A,,Overcast,350,2013-02-24 07:36:00
12:56 AM,14.0,8.6,79,29.87,9.0,North,12.7,20.7,N/A,,Overcast,360,2013-02-24 07:56:00
1:15 AM,14.0,8.6,79,29.87,10.0,NNW,8.1,-,N/A,,Overcast,340,2013-02-24 08:15:00
1:55 AM,14.0,8.6,79,29.88,10.0,North,10.4,-,N/A,,Scattered Clouds,360,2013-02-24 08:55:00
2:15 AM,15.8,8.6,73,29.89,10.0,North,12.7,-,N/A,,Partly Cloudy,10,2013-02-24 09:15:00
2:35 AM,14.0,8.6,79,29.89,10.0,North,11.5,-,N/A,,Scattered Clouds,360,2013-02-24 09:35:00
2:55 AM,15.8,8.6,73,29.89,10.0,NNE,13.8,-,N/A,,Partly Cloudy,20,2013-02-24 09:55:00
3:15 AM,12.2,6.8,79,29.90,10.0,NNW,8.1,-,N/A,,Clear,340,2013-02-24 10:15:00
3:35 AM,14.0,8.6,79,29.90,10.0,North,13.8,-,N/A,,Clear,350,2013-02-24 10:35:00
3:55 AM,12.2,6.8,79,29.91,10.0,North,15.0,-,N/A,,Clear,360,2013-02-24 10:55:00
4:15 AM,12.2,6.8,79,29.91,10.0,North,16.1,-,N/A,,Clear,360,2013-02-24 11:15:00
4:35 AM,12.2,6.8,79,29.92,10.0,North,13.8,-,N/A,,Clear,350,2013-02-24 11:35:00
5:15 AM,10.4,5.0,79,29.94,10.0,North,16.1,-,N/A,,Clear,10,2013-02-24 12:15:00
5:35 AM,8.6,3.2,79,29.95,10.0,North,12.7,-,N/A,,Clear,350,2013-02-24 12:35:00
5:55 AM,8.6,3.2,79,29.97,10.0,NNW,11.5,-,N/A,,Clear,340,2013-02-24 12:55:00
6:15 AM,6.8,3.2,85,29.97,10.0,North,10.4,-,N/A,,Clear,350,2013-02-24 13:15:00
6:35 AM,6.8,1.4,79,29.98,10.0,North,11.5,-,N/A,,Clear,360,2013-02-24 13:35:00
6:52 AM,6.8,1.4,79,29.98,10.0,NNW,11.5,-,N/A,,Clear,340,2013-02-24 13:52:00
6:55 AM,6.8,1.4,79,29.98,10.0,North,11.5,-,N/A,,Clear,350,2013-02-24 13:55:00
7:52 AM,5.0,1.4,85,30.02,10.0,NNW,9.2,-,N/A,,Clear,340,2013-02-24 14:52:00
8:51 AM,8.6,1.4,73,30.05,10.0,Calm,Calm,-,N/A,,Clear,0,2013-02-24 15:51:00
9:55 AM,10.4,3.2,73,30.05,10.0,SSW,4.6,-,N/A,,Clear,200,2013-02-24 16:55:00
10:51 AM,17.6,8.6,68,30.06,10.0,NNW,4.6,-,N/A,,Clear,340,2013-02-24 17:51:00
12:51 PM,21.2,10.4,63,30.06,10.0,SE,5.8,-,N/A,,Clear,140,2013-02-24 19:51:00
1:52 PM,24.8,12.2,59,30.04,10.0,South,5.8,-,N/A,,Clear,180,2013-02-24 20:52:00
2:55 PM,24.8,12.2,59,30.05,10.0,South,5.8,-,N/A,,Clear,170,2013-02-24 21:55:00
3:53 PM,24.8,12.2,59,30.05,10.0,SE,6.9,-,N/A,,Clear,130,2013-02-24 22:53:00
4:57 PM,24.8,10.4,54,30.07,10.0,SW,4.6,-,N/A,,Clear,220,2013-02-24 23:57:00
5:51 PM,21.2,6.8,54,30.08,10.0,SW,11.5,16.1,N/A,,Clear,230,2013-02-25 00:51:00
6:51 PM,19.4,3.2,49,30.09,10.0,SW,8.1,-,N/A,,Clear,230,2013-02-25 01:51:00
7:55 PM,17.6,6.8,63,30.11,10.0,Calm,Calm,-,N/A,,Clear,0,2013-02-25 02:55:00
8:52 PM,8.6,3.2,79,30.12,10.0,North,4.6,-,N/A,,Clear,350,2013-02-25 03:52:00
8:55 PM,8.6,3.2,79,30.12,10.0,NE,3.5,-,N/A,,Clear,40,2013-02-25 03:55:00
9:15 PM,6.8,1.4,79,30.11,10.0,North,3.5,-,N/A,,Clear,10,2013-02-25 04:15:00
9:35 PM,6.8,1.4,79,30.12,10.0,North,6.9,-,N/A,,Clear,10,2013-02-25 04:35:00
9:55 PM,10.4,3.2,73,30.12,10.0,NNE,6.9,-,N/A,,Clear,30,2013-02-25 04:55:00
10:15 PM,10.4,1.4,67,30.12,10.0,NNE,3.5,-,N/A,,Clear,30,2013-02-25 05:15:00
10:35 PM,1.4,-0.4,92,30.13,10.0,North,8.1,-,N/A,,Clear,10,2013-02-25 05:35:00
10:55 PM,1.4,-0.4,92,30.13,10.0,North,10.4,-,N/A,,Clear,10,2013-02-25 05:55:00
11:15 PM,1.4,-0.4,92,30.13,10.0,NNE,9.2,-,N/A,,Clear,20,2013-02-25 06:15:00
11:55 PM,-4.0,-5.8,92,30.13,10.0,North,10.4,-,N/A,,Clear,10,2013-02-25 06:55:00